Time;durP1;ratioP1;P1;durP2;ratioP2;P2;SDS_P1;SDS_P2;PMS_P1;PMS_P2;Temp;Humidity;BMP_temperature;BMP_pressure;BME280_temperature;BME280_humidity;BME280_pressure;Samples;Min_cycle;Max_cycle;Signal;HPM_P1;HPM_P2
2021/01/26 00:00:44;;;;;;;10.80;2.72;;;26.00;87.50;;;;;;6265806;22;20026;-90
2021/01/26 00:03:16;;;;;;;6.22;3.20;;;26.00;87.40;;;;;;6294254;22;19999;-89
2021/01/26 00:05:43;;;;;;;;;;;25.90;87.90;;;;;;6254104;22;20736;-84
2021/01/26 00:08:25;;;;;;;7.20;3.72;;;25.80;88.20;;;;;;6363760;22;19917;-88
2021/01/26 00:10:52;;;;;;;7.10;3.30;;;25.70;88.20;;;;;;6331767;22;20010;-90
2021/01/26 00:13:24;;;;;;;7.97;2.83;;;25.70;88.20;;;;;;6327065;22;19990;-90
2021/01/26 00:15:52;;;;;;;5.65;3.03;;;25.60;88.60;;;;;;6353801;22;19999;-89
2021/01/26 00:18:18;;;;;;;6.85;3.25;;;25.60;88.60;;;;;;6325279;22;20018;-89
2021/01/26 00:20:52;;;;;;;7.72;3.33;;;25.70;88.90;;;;;;6356565;22;20028;-89
2021/01/26 00:23:21;;;;;;;7.38;3.30;;;25.60;89.00;;;;;;6356106;22;20250;-91
2021/01/26 00:25:56;;;;;;;7.10;3.00;;;25.60;89.40;;;;;;6328461;22;19991;-88
2021/01/26 00:28:23;;;;;;;5.28;3.10;;;25.50;89.80;;;;;;6350455;22;20005;-90
2021/01/26 00:31:08;;;;;;;5.63;2.65;;;25.40;90.00;;;;;;6351919;22;20271;-90
2021/01/26 00:33:36;;;;;;;7.75;3.40;;;25.40;90.30;;;;;;6325515;22;19998;-90
2021/01/26 00:36:03;;;;;;;10.20;2.92;;;25.40;90.10;;;;;;6352887;22;19994;-90
2021/01/26 00:38:30;;;;;;;8.13;3.00;;;25.40;90.30;;;;;;6351294;22;19993;-90
2021/01/26 00:41:00;;;;;;;12.05;2.95;;;25.40;90.20;;;;;;6326458;22;19995;-91
2021/01/26 00:43:41;;;;;;;8.55;2.72;;;25.30;90.40;;;;;;6324858;22;20287;-92
2021/01/26 00:46:39;;;;;;;6.75;2.90;;;25.40;90.20;;;;;;6353987;22;20002;-91
2021/01/26 00:52:05;;;;;;;11.55;4.03;;;25.30;90.20;;;;;;6354366;22;20037;-92
2021/01/26 00:54:39;;;;;;;8.38;4.20;;;25.30;90.10;;;;;;6354743;22;20056;-91
2021/01/26 00:57:06;;;;;;;13.05;6.70;;;25.30;90.10;;;;;;6323461;22;20267;-90
2021/01/26 00:59:33;;;;;;;13.65;6.97;;;25.30;90.30;;;;;;6323064;22;19991;-91
2021/01/26 01:03:04;;;;;;;10.82;5.85;;;25.30;90.30;;;;;;6296778;22;20168;-90
2021/01/26 01:48:58;;;;;;;5.43;2.78;;;24.70;90.70;;;;;;6302802;22;20019;-91
2021/01/26 01:52:01;;;;;;;6.68;3.17;;;24.70;90.60;;;;;;6325623;22;20055;-91
2021/01/26 01:58:53;;;;;;;15.95;3.30;;;24.70;90.60;;;;;;6294420;22;20312;-93
2021/01/26 02:06:00;;;;;;;7.32;3.10;;;24.70;90.50;;;;;;6222626;23;20043;-92
2021/01/26 02:09:07;;;;;;;7.85;3.03;;;24.60;90.40;;;;;;6223527;22;20000;-92
2021/01/26 02:12:13;;;;;;;7.00;3.08;;;24.60;90.40;;;;;;6232840;23;20072;-91
2021/01/26 02:15:10;;;;;;;4.93;2.53;;;24.60;90.60;;;;;;6202771;23;20044;-90
2021/01/26 02:18:29;;;;;;;6.32;2.80;;;24.60;90.30;;;;;;6175564;23;20007;-90
2021/01/26 02:21:51;;;;;;;6.03;2.75;;;24.50;90.40;;;;;;6196216;23;20001;-91
2021/01/26 02:24:53;;;;;;;7.80;3.22;;;24.50;90.50;;;;;;6184754;23;20041;-91
2021/01/26 02:27:57;;;;;;;3.90;2.42;;;24.40;90.40;;;;;;6171469;23;20001;-92
2021/01/26 02:34:09;;;;;;;5.93;3.15;;;24.30;90.50;;;;;;6171007;23;20094;-93
2021/01/26 02:37:12;;;;;;;11.65;3.38;;;24.30;90.40;;;;;;6171075;23;20008;-94
2021/01/26 02:40:29;;;;;;;8.88;3.30;;;24.30;90.70;;;;;;6171447;23;20023;-93
2021/01/26 02:43:15;;;;;;;6.35;3.13;;;24.30;90.70;;;;;;6087277;23;20002;-94
2021/01/26 02:46:19;;;;;;;7.80;3.20;;;24.30;90.70;;;;;;6146736;23;20424;-93
2021/01/26 02:49:31;;;;;;;8.80;3.60;;;24.30;90.60;;;;;;6260517;23;20006;-92
2021/01/26 02:52:52;;;;;;;8.82;3.15;;;24.30;90.60;;;;;;6270084;22;20223;-93
2021/01/26 02:59:19;;;;;;;6.22;2.83;;;24.30;90.40;;;;;;6297978;22;19995;-90
2021/01/26 03:02:29;;;;;;;7.82;3.40;;;24.40;90.20;;;;;;6274235;22;19999;-92
2021/01/26 03:05:24;;;;;;;6.57;2.78;;;24.40;90.30;;;;;;6291405;22;19996;-92
2021/01/26 03:09:00;;;;;;;6.55;2.80;;;24.40;90.30;;;;;;6265648;22;20063;-91
2021/01/26 03:12:02;;;;;;;7.70;3.05;;;24.50;90.40;;;;;;6171518;22;20316;-91
2021/01/26 03:15:07;;;;;;;;;;;;;;;;;;;;;
2021/01/26 03:17:47;;;;;;;7.68;3.60;;;24.40;90.40;;;;;;6273774;22;20251;-91
2021/01/26 03:21:09;;;;;;;7.85;3.22;;;24.40;90.60;;;;;;6269206;22;20222;-92
2021/01/26 03:24:03;;;;;;;4.70;2.80;;;24.40;90.50;;;;;;6299180;22;20019;-92
2021/01/26 03:26:58;;;;;;;9.48;2.92;;;24.50;90.40;;;;;;6266548;22;19988;-91
2021/01/26 03:29:30;;;;;;;6.63;2.88;;;24.40;90.50;;;;;;6268284;22;19996;-93
2021/01/26 03:35:02;;;;;;;8.60;2.88;;;24.40;90.40;;;;;;6363472;22;20052;-90
2021/01/26 03:37:29;;;;;;;7.05;2.92;;;24.40;90.30;;;;;;6336319;22;19999;-91
2021/01/26 03:39:57;;;;;;;8.68;4.75;;;24.40;90.00;;;;;;6304572;22;20002;-91
2021/01/26 03:42:26;;;;;;;11.38;6.68;;;24.40;89.90;;;;;;6328419;22;20026;-93
2021/01/26 03:44:53;;;;;;;9.35;5.03;;;24.50;89.70;;;;;;6328304;22;19991;-92
2021/01/26 03:47:40;;;;;;;11.88;7.85;;;24.50;89.70;;;;;;6355797;22;19994;-93
2021/01/26 03:50:09;;;;;;;10.35;3.83;;;24.50;89.20;;;;;;6328308;22;20014;-92
2021/01/26 03:52:48;;;;;;;7.78;3.55;;;24.50;89.20;;;;;;6326339;22;19999;-92
2021/01/26 03:55:54;;;;;;;7.82;2.88;;;24.50;89.20;;;;;;6327810;22;19998;-93
2021/01/26 03:58:47;;;;;;;7.15;2.65;;;24.60;88.90;;;;;;6301176;22;20041;-93
2021/01/26 04:01:19;;;;;;;;;;;24.60;89.00;;;;;;6328969;22;19995;-92
2021/01/26 04:04:12;;;;;;;5.78;2.38;;;24.60;88.50;;;;;;6354603;22;19925;-92
2021/01/26 04:06:55;;;;;;;6.85;2.85;;;24.60;88.20;;;;;;6263301;22;19998;-92
2021/01/26 04:09:27;;;;;;;6.55;2.83;;;24.60;88.80;;;;;;6353142;22;20214;-91
2021/01/26 04:12:10;;;;;;;5.40;2.70;;;24.60;88.60;;;;;;6324501;22;19994;-92
2021/01/26 04:14:52;;;;;;;7.28;2.38;;;24.60;88.20;;;;;;6318021;22;20055;-91
2021/01/26 04:17:47;;;;;;;5.07;2.40;;;24.60;88.40;;;;;;6327624;22;19991;-94
2021/01/26 04:20:23;;;;;;;5.70;2.30;;;24.60;88.20;;;;;;6346275;22;20068;-93
2021/01/26 04:22:55;;;;;;;4.88;2.72;;;24.60;87.90;;;;;;6319940;22;20009;-93
2021/01/26 04:25:31;;;;;;;7.35;2.13;;;24.60;88.10;;;;;;6327362;22;20368;-93
2021/01/26 04:28:04;;;;;;;5.88;3.08;;;24.60;88.00;;;;;;6328885;22;20001;-92
2021/01/26 04:30:39;;;;;;;11.93;2.75;;;24.60;87.70;;;;;;6327542;22;19995;-92
2021/01/26 04:33:29;;;;;;;5.20;2.40;;;24.60;88.40;;;;;;6354521;22;20215;-93
2021/01/26 04:35:55;;;;;;;7.13;2.40;;;24.60;88.20;;;;;;6326864;22;20002;-94
2021/01/26 04:38:28;;;;;;;6.65;2.28;;;24.60;88.50;;;;;;6328739;22;20004;-93
2021/01/26 04:41:49;;;;;;;7.45;2.55;;;24.50;88.20;;;;;;6324706;22;20003;-92
2021/01/26 04:44:04;;;;;;;5.85;2.30;;;24.50;88.20;;;;;;6339139;22;20007;-94
2021/01/26 04:46:44;;;;;;;9.52;2.97;;;24.50;88.20;;;;;;6326973;22;19999;-93
2021/01/26 04:49:30;;;;;;;8.38;2.60;;;24.50;88.90;;;;;;6354362;22;20218;-90
2021/01/26 04:52:00;;;;;;;4.47;2.47;;;24.50;88.60;;;;;;6325535;22;20002;-92
2021/01/26 04:54:43;;;;;;;5.00;2.30;;;24.50;89.30;;;;;;6324027;22;19994;-92
2021/01/26 04:57:09;;;;;;;6.00;2.35;;;24.50;89.00;;;;;;6324623;22;19998;-92
2021/01/26 05:00:14;;;;;;;3.05;2.17;;;24.50;88.90;;;;;;6324905;22;20195;-92
2021/01/26 05:03:15;;;;;;;4.50;2.40;;;24.50;88.80;;;;;;6320011;22;20001;-93
2021/01/26 05:05:46;;;;;;;7.32;2.67;;;24.50;88.70;;;;;;6354144;22;19991;-92
2021/01/26 05:08:23;;;;;;;6.10;2.95;;;24.50;88.90;;;;;;6354523;22;20005;-92
2021/01/26 05:10:52;;;;;;;5.18;2.80;;;24.50;89.00;;;;;;6329576;22;19991;-92
2021/01/26 05:13:36;;;;;;;5.00;2.58;;;24.50;88.90;;;;;;6327110;22;19995;-92
2021/01/26 05:16:21;;;;;;;3.13;2.08;;;24.40;88.90;;;;;;6330061;22;20298;-91
2021/01/26 05:18:49;;;;;;;6.47;2.22;;;24.30;88.80;;;;;;6328799;22;20002;-92
2021/01/26 05:21:43;;;;;;;6.05;2.20;;;24.30;89.00;;;;;;6325576;22;20006;-91
2021/01/26 05:24:25;;;;;;;7.80;2.55;;;24.40;88.80;;;;;;6326254;22;19994;-92
2021/01/26 05:27:03;;;;;;;5.43;2.05;;;24.30;88.70;;;;;;6326397;22;19995;-93
2021/01/26 05:29:35;;;;;;;5.22;2.30;;;24.30;88.60;;;;;;6314427;22;20021;-91
2021/01/26 05:32:06;;;;;;;3.22;2.10;;;24.30;88.40;;;;;;6362101;22;20007;-92
2021/01/26 05:34:37;;;;;;;5.97;2.67;;;24.30;88.10;;;;;;6327348;22;20013;-91
2021/01/26 05:37:16;;;;;;;5.78;2.65;;;24.20;88.00;;;;;;6329237;22;20093;-92
2021/01/26 05:39:58;;;;;;;8.43;2.85;;;24.20;88.20;;;;;;6332171;22;19991;-91
2021/01/26 05:42:27;;;;;;;4.05;2.65;;;24.20;88.30;;;;;;6358072;22;20002;-91
2021/01/26 05:44:58;;;;;;;6.57;2.33;;;24.20;88.70;;;;;;6329835;22;19995;-92
2021/01/26 05:47:29;;;;;;;5.70;2.72;;;24.20;89.20;;;;;;6331616;22;19991;-91
2021/01/26 05:49:56;;;;;;;4.18;2.20;;;24.10;89.80;;;;;;6331862;22;19997;-92
2021/01/26 05:52:34;;;;;;;3.47;2.47;;;24.10;90.00;;;;;;6331773;22;20223;-90
2021/01/26 05:55:01;;;;;;;7.28;2.60;;;24.00;90.10;;;;;;6331203;22;20026;-93
2021/01/26 05:57:35;;;;;;;7.22;2.70;;;24.00;90.10;;;;;;6330377;22;20003;-93
2021/01/26 06:00:16;;;;;;;5.20;2.40;;;23.90;90.20;;;;;;6323763;22;20003;-94
2021/01/26 06:03:17;;;;;;;8.02;2.40;;;23.90;90.40;;;;;;6325493;22;20002;-93
2021/01/26 06:06:03;;;;;;;4.85;2.53;;;23.90;90.20;;;;;;6333652;22;19987;-92
2021/01/26 06:08:32;;;;;;;4.43;2.55;;;23.80;90.30;;;;;;6330436;22;19990;-92
2021/01/26 06:10:59;;;;;;;4.85;2.40;;;23.80;90.30;;;;;;6331278;22;19994;-93
2021/01/26 06:13:30;;;;;;;8.07;2.70;;;23.80;90.30;;;;;;6328930;22;20054;-91
2021/01/26 06:16:09;;;;;;;7.32;2.72;;;23.70;90.40;;;;;;6331952;22;20007;-92
2021/01/26 06:18:38;;;;;;;9.50;2.88;;;23.70;90.30;;;;;;6359591;22;19998;-90
2021/01/26 06:21:11;;;;;;;9.32;3.38;;;23.70;90.60;;;;;;6332907;22;20009;-91
2021/01/26 06:23:40;;;;;;;6.28;2.80;;;23.60;90.80;;;;;;6334362;22;20056;-94
2021/01/26 06:26:09;;;;;;;6.53;2.92;;;23.60;90.80;;;;;;6328443;22;20018;-93
2021/01/26 06:28:56;;;;;;;6.10;2.65;;;23.60;90.70;;;;;;6368262;22;20058;-91
2021/01/26 06:32:07;;;;;;;7.88;2.63;;;23.50;90.70;;;;;;6332824;22;20014;-91
2021/01/26 06:38:15;;;;;;;7.10;2.45;;;23.50;90.80;;;;;;6266836;22;20039;-88
2021/01/26 06:41:24;;;;;;;4.13;2.58;;;23.50;90.90;;;;;;6244545;23;19992;-91
2021/01/26 06:44:29;;;;;;;6.53;2.20;;;23.40;90.70;;;;;;6181973;23;20126;-92
2021/01/26 06:47:42;;;;;;;7.60;3.15;;;23.30;91.00;;;;;;6088021;23;20166;-92
2021/01/26 06:50:18;;;;;;;5.82;2.60;;;23.30;91.00;;;;;;6237385;23;20003;-92
2021/01/26 06:53:22;;;;;;;6.90;2.97;;;23.20;90.90;;;;;;6237222;22;20000;-92
2021/01/26 06:56:01;;;;;;;6.97;2.60;;;23.20;90.90;;;;;;6228793;23;20004;-92
2021/01/26 06:58:37;;;;;;;7.25;2.50;;;23.30;90.80;;;;;;6239511;23;20048;-90
2021/01/26 07:01:16;;;;;;;6.07;2.70;;;23.30;90.70;;;;;;6239381;23;20023;-89
2021/01/26 07:03:52;;;;;;;6.35;2.60;;;23.30;90.60;;;;;;6239951;23;20024;-89
2021/01/26 07:06:25;;;;;;;5.22;2.63;;;23.30;90.50;;;;;;6238797;23;20084;-90
2021/01/26 07:09:11;;;;;;;6.97;2.60;;;23.30;90.40;;;;;;6239674;23;20351;-89
2021/01/26 07:12:05;;;;;;;4.70;2.30;;;23.30;90.50;;;;;;6267853;22;20375;-90
2021/01/26 07:14:40;;;;;;;8.63;2.85;;;23.20;90.60;;;;;;6240952;23;20299;-89
2021/01/26 07:17:09;;;;;;;8.02;2.85;;;23.20;90.50;;;;;;6239616;23;20024;-91
2021/01/26 07:20:03;;;;;;;6.82;2.40;;;23.20;90.50;;;;;;6243014;23;19984;-91
2021/01/26 07:22:52;;;;;;;7.75;2.72;;;23.10;90.50;;;;;;6261325;22;20011;-90
2021/01/26 07:25:26;;;;;;;5.22;1.90;;;23.10;90.50;;;;;;6238989;23;20087;-92
2021/01/26 07:28:05;;;;;;;7.07;3.08;;;23.20;90.80;;;;;;6278709;22;20007;-93
2021/01/26 07:30:38;;;;;;;3.72;1.95;;;23.10;90.60;;;;;;6335620;22;19995;-93
2021/01/26 07:33:12;;;;;;;5.15;2.15;;;23.00;90.60;;;;;;6332115;22;20031;-94
2021/01/26 07:35:41;;;;;;;4.68;2.55;;;23.10;90.40;;;;;;6333217;22;20283;-93
2021/01/26 07:38:31;;;;;;;4.72;2.40;;;23.10;90.30;;;;;;6336301;22;20014;-93
2021/01/26 07:41:07;;;;;;;4.57;2.50;;;23.20;90.40;;;;;;6332552;22;19999;-92
2021/01/26 07:43:53;;;;;;;6.03;2.38;;;23.20;90.50;;;;;;6331709;22;20041;-92
2021/01/26 07:46:37;;;;;;;5.40;2.40;;;23.10;90.20;;;;;;6329741;22;20209;-92
2021/01/26 07:49:31;;;;;;;7.03;2.15;;;23.10;90.10;;;;;;6331563;22;20002;-91
2021/01/26 07:52:01;;;;;;;6.20;2.25;;;23.20;90.30;;;;;;6331901;22;20006;-93
2021/01/26 07:55:06;;;;;;;8.32;2.90;;;23.20;90.20;;;;;;6341820;22;20029;-92
2021/01/26 07:58:04;;;;;;;3.70;2.10;;;23.30;90.10;;;;;;6359323;22;19998;-92
2021/01/26 08:00:40;;;;;;;8.13;2.75;;;23.30;89.90;;;;;;6346257;22;19999;-91
2021/01/26 08:03:07;;;;;;;5.88;2.10;;;23.30;89.70;;;;;;6322629;22;20006;-94
2021/01/26 08:05:49;;;;;;;5.53;2.20;;;23.30;88.90;;;;;;6295704;22;20016;-94
2021/01/26 08:08:26;;;;;;;5.00;2.20;;;23.30;88.80;;;;;;6265030;22;19996;-92
2021/01/26 08:11:20;;;;;;;5.65;2.63;;;23.40;89.00;;;;;;6297039;22;20021;-91
2021/01/26 08:13:54;;;;;;;6.10;2.40;;;23.40;89.20;;;;;;6272239;22;20002;-90
2021/01/26 08:16:29;;;;;;;5.55;2.30;;;23.40;88.90;;;;;;6272430;22;20030;-90
2021/01/26 08:18:56;;;;;;;6.00;2.47;;;23.50;89.20;;;;;;6270631;22;19996;-90
2021/01/26 08:21:36;;;;;;;5.63;2.10;;;23.50;89.00;;;;;;6296488;22;19992;-90
2021/01/26 08:24:12;;;;;;;2.83;2.13;;;23.40;88.80;;;;;;6301039;22;19987;-90
2021/01/26 08:26:41;;;;;;;3.38;2.25;;;23.40;89.30;;;;;;6270974;22;20008;-89
2021/01/26 08:29:08;;;;;;;4.63;2.30;;;23.40;89.30;;;;;;6271556;22;19996;-90
2021/01/26 08:31:38;;;;;;;5.90;2.10;;;23.40;89.20;;;;;;6270473;22;20004;-90
2021/01/26 08:34:35;;;;;;;6.35;2.38;;;23.50;89.40;;;;;;6270137;22;20004;-90
2021/01/26 08:37:15;;;;;;;4.30;2.55;;;23.50;89.60;;;;;;6278524;22;20196;-91
2021/01/26 08:39:45;;;;;;;4.72;2.00;;;23.50;89.70;;;;;;6269193;22;19991;-93
2021/01/26 08:42:32;;;;;;;6.03;2.28;;;23.50;89.50;;;;;;6269484;22;20003;-92
2021/01/26 08:44:58;;;;;;;5.97;2.28;;;23.50;89.00;;;;;;6270327;22;20094;-91
2021/01/26 08:47:48;;;;;;;4.80;2.05;;;23.40;88.90;;;;;;6268640;22;20015;-93
2021/01/26 08:50:26;;;;;;;5.30;2.22;;;23.50;88.60;;;;;;6270025;22;20000;-88
2021/01/26 08:53:13;;;;;;;4.28;2.45;;;23.50;88.30;;;;;;6271007;22;19998;-91
2021/01/26 08:55:42;;;;;;;4.07;2.00;;;23.50;88.40;;;;;;6268925;22;20007;-91
2021/01/26 08:58:13;;;;;;;5.97;2.33;;;23.60;87.90;;;;;;6269055;22;20075;-90
2021/01/26 09:00:46;;;;;;;4.68;2.10;;;23.60;87.30;;;;;;6244557;22;20031;-91
2021/01/26 09:03:29;;;;;;;6.43;2.78;;;23.60;86.60;;;;;;6269508;22;20022;-90
2021/01/26 09:06:03;;;;;;;3.92;1.83;;;23.70;86.70;;;;;;6286160;22;20058;-90
2021/01/26 09:08:42;;;;;;;6.50;2.10;;;23.70;86.30;;;;;;6299205;22;20365;-90
2021/01/26 09:11:15;;;;;;;5.70;2.20;;;23.70;85.90;;;;;;6300360;22;20021;-90
2021/01/26 09:13:43;;;;;;;4.00;1.80;;;23.80;86.20;;;;;;6297762;22;20229;-92
2021/01/26 09:16:24;;;;;;;5.40;2.15;;;23.80;84.70;;;;;;6297288;22;20010;-91
2021/01/26 09:18:58;;;;;;;5.82;2.10;;;23.80;84.60;;;;;;6298658;22;20192;-92
2021/01/26 09:21:29;;;;;;;6.07;1.85;;;23.80;84.10;;;;;;6298881;22;20048;-91
2021/01/26 09:23:56;;;;;;;4.53;2.05;;;23.90;84.10;;;;;;6300227;22;20003;-89
2021/01/26 09:26:27;;;;;;;3.15;1.73;;;23.90;84.10;;;;;;6298019;22;20013;-90
2021/01/26 09:28:54;;;;;;;3.90;1.58;;;23.90;83.70;;;;;;6294934;22;19999;-91
2021/01/26 09:31:27;;;;;;;4.60;1.95;;;23.90;84.10;;;;;;6296036;22;20062;-91
2021/01/26 09:34:06;;;;;;;3.60;1.70;;;23.90;84.30;;;;;;6325075;22;19995;-91
2021/01/26 09:36:34;;;;;;;3.85;1.98;;;23.90;84.20;;;;;;6269295;22;19999;-93
2021/01/26 09:39:10;;;;;;;4.22;1.75;;;23.90;83.70;;;;;;6296595;22;20066;-92
2021/01/26 09:41:37;;;;;;;4.85;1.95;;;23.90;83.40;;;;;;6324943;22;20042;-93
2021/01/26 09:44:10;;;;;;;2.70;1.52;;;23.90;82.50;;;;;;6322774;22;20054;-92
2021/01/26 09:46:38;;;;;;;;;;;23.90;82.90;;;;;;6322803;22;20019;-92
2021/01/26 09:49:25;;;;;;;3.25;1.63;;;24.00;82.80;;;;;;6302810;22;19937;-90
2021/01/26 09:52:15;;;;;;;4.18;2.25;;;24.00;83.60;;;;;;6303007;22;20057;-90
2021/01/26 09:54:43;;;;;;;6.28;2.10;;;23.90;84.20;;;;;;6300917;22;20043;-92
2021/01/26 09:57:16;;;;;;;4.82;2.00;;;23.90;84.50;;;;;;6297140;22;20140;-92
2021/01/26 09:59:45;;;;;;;4.03;2.10;;;23.80;85.20;;;;;;6298224;22;19995;-89
2021/01/26 10:02:15;;;;;;;6.18;2.03;;;23.80;85.60;;;;;;6297440;22;20004;-91
2021/01/26 10:04:43;;;;;;;4.68;1.90;;;23.80;86.30;;;;;;6296751;22;19991;-92
2021/01/26 10:07:17;;;;;;;3.25;1.90;;;23.80;86.20;;;;;;6299871;22;20074;-90
2021/01/26 10:09:45;;;;;;;4.65;1.95;;;23.80;86.00;;;;;;6301158;22;19996;-91
2021/01/26 10:12:28;;;;;;;8.30;2.70;;;23.80;86.30;;;;;;6302578;22;19995;-91
2021/01/26 10:15:11;;;;;;;4.55;2.28;;;23.80;85.90;;;;;;6302878;22;20268;-91
2021/01/26 10:17:48;;;;;;;4.03;1.92;;;23.80;84.80;;;;;;6301473;22;20066;-92
2021/01/26 10:20:44;;;;;;;5.15;1.98;;;23.80;85.10;;;;;;6302022;22;19999;-92
2021/01/26 10:23:22;;;;;;;4.55;2.00;;;23.80;85.40;;;;;;6248778;22;20062;-91
2021/01/26 10:25:49;;;;;;;3.95;1.88;;;23.80;84.90;;;;;;6302347;22;20041;-92
2021/01/26 10:28:27;;;;;;;7.25;2.17;;;23.80;84.60;;;;;;6301425;22;19995;-94
2021/01/26 10:30:55;;;;;;;4.00;2.03;;;23.80;84.30;;;;;;6298736;22;20068;-91
2021/01/26 10:33:38;;;;;;;4.63;1.80;;;23.80;84.30;;;;;;6302154;22;20003;-89
2021/01/26 10:36:23;;;;;;;3.70;1.83;;;23.70;83.70;;;;;;6302081;22;19999;-89
2021/01/26 10:38:51;;;;;;;3.80;1.70;;;23.70;83.90;;;;;;6329494;22;19998;-90
2021/01/26 10:41:38;;;;;;;6.50;2.25;;;23.70;83.60;;;;;;6302043;22;20018;-90
2021/01/26 10:44:10;;;;;;;3.17;1.70;;;23.70;83.90;;;;;;6301939;22;20027;-90
2021/01/26 10:46:49;;;;;;;5.05;2.00;;;23.70;83.00;;;;;;6302337;22;20041;-90
2021/01/26 10:49:35;;;;;;;4.30;2.00;;;23.70;82.80;;;;;;6295878;22;20037;-91
2021/01/26 10:52:09;;;;;;;5.28;2.67;;;23.70;82.40;;;;;;6292319;22;20075;-91
2021/01/26 10:54:36;;;;;;;4.15;2.08;;;23.60;82.50;;;;;;6291946;22;19995;-90
2021/01/26 10:57:03;;;;;;;6.18;2.33;;;23.60;82.90;;;;;;6319549;22;19999;-90
2021/01/26 10:59:30;;;;;;;9.82;5.05;;;23.60;83.10;;;;;;6291956;22;19995;-89
2021/01/26 11:01:56;;;;;;;7.20;2.38;;;23.60;83.10;;;;;;6319471;22;20003;-90
2021/01/26 11:04:25;;;;;;;5.10;2.63;;;23.50;82.70;;;;;;6319632;22;19994;-90
2021/01/26 11:07:09;;;;;;;12.18;6.10;;;23.50;83.00;;;;;;6270065;22;20007;-89
2021/01/26 11:09:36;;;;;;;7.60;4.78;;;23.50;83.40;;;;;;6261063;22;20007;-89
2021/01/26 11:12:04;;;;;;;5.32;3.00;;;23.40;83.30;;;;;;6261845;22;20010;-90
2021/01/26 11:14:42;;;;;;;4.60;2.38;;;23.40;83.10;;;;;;6260235;22;19995;-88
2021/01/26 11:17:11;;;;;;;6.38;1.92;;;23.40;83.50;;;;;;6289160;22;19991;-91
2021/01/26 11:19:38;;;;;;;5.38;2.67;;;23.30;83.80;;;;;;6261393;22;20018;-90
2021/01/26 11:22:11;;;;;;;9.50;4.95;;;23.30;83.30;;;;;;6261330;22;20007;-91
2021/01/26 11:24:42;;;;;;;9.52;4.28;;;23.30;83.10;;;;;;6264100;22;19988;-90
2021/01/26 11:27:17;;;;;;;7.78;2.40;;;23.30;83.90;;;;;;6260665;22;20000;-91
2021/01/26 11:29:44;;;;;;;6.25;2.83;;;23.40;83.00;;;;;;6262561;22;20011;-92
2021/01/26 11:32:11;;;;;;;7.13;2.72;;;23.30;82.80;;;;;;6289744;22;20002;-92
2021/01/26 11:34:37;;;;;;;6.65;3.35;;;23.30;82.70;;;;;;6269790;22;19996;-90
2021/01/26 11:37:04;;;;;;;9.05;3.20;;;23.40;82.50;;;;;;6270275;22;19999;-90
2021/01/26 11:39:31;;;;;;;6.75;2.67;;;23.40;82.30;;;;;;6269819;22;20007;-90
2021/01/26 11:42:03;;;;;;;3.38;2.40;;;23.40;82.60;;;;;;6269122;22;20000;-90
2021/01/26 11:44:29;;;;;;;;;;;23.50;82.30;;;;;;6270414;22;19996;-90
2021/01/26 11:46:57;;;;;;;15.27;5.95;;;23.50;82.10;;;;;;6244963;22;19954;-90
2021/01/26 11:49:24;;;;;;;15.10;6.60;;;23.60;81.80;;;;;;6269459;22;19996;-89
2021/01/26 11:51:52;;;;;;;12.05;5.78;;;23.60;81.70;;;;;;6270904;22;20055;-90
2021/01/26 12:11:29;;;;;;;4.68;2.67;;;24.20;79.90;;;;;;6326548;22;20133;-91
2021/01/26 12:13:56;;;;;;;4.13;2.15;;;24.30;80.00;;;;;;6329250;22;20011;-90
2021/01/26 12:16:23;;;;;;;7.50;2.90;;;24.30;78.70;;;;;;6304371;22;20053;-90
2021/01/26 12:18:49;;;;;;;6.95;2.90;;;24.40;78.70;;;;;;6350275;22;20014;-90
2021/01/26 12:21:16;;;;;;;6.93;3.15;;;24.50;78.20;;;;;;6332577;22;20021;-92
2021/01/26 12:23:48;;;;;;;9.30;3.33;;;24.50;78.90;;;;;;6353378;22;20040;-92
2021/01/26 12:26:15;;;;;;;5.13;2.53;;;24.60;79.20;;;;;;6306050;22;19994;-88
2021/01/26 12:28:42;;;;;;;4.95;2.50;;;24.80;78.50;;;;;;6333068;22;20051;-91
2021/01/26 12:31:09;;;;;;;5.45;2.10;;;24.90;77.30;;;;;;6329598;22;19998;-89
2021/01/26 12:33:58;;;;;;;3.45;2.10;;;25.10;77.80;;;;;;6326028;22;20165;-88
2021/01/26 12:36:25;;;;;;;6.40;3.13;;;25.10;77.20;;;;;;6289103;22;20002;-89
2021/01/26 12:38:52;;;;;;;4.93;2.50;;;25.10;77.50;;;;;;6263663;22;20053;-89
2021/01/26 12:41:18;;;;;;;6.03;2.47;;;25.20;77.60;;;;;;6263018;22;19996;-88
2021/01/26 12:43:45;;;;;;;6.63;3.08;;;25.30;77.30;;;;;;6263243;22;20008;-87
2021/01/26 12:46:12;;;;;;;3.92;2.22;;;25.30;76.20;;;;;;6288221;22;20046;-89
2021/01/26 12:48:48;;;;;;;5.57;2.65;;;25.30;76.70;;;;;;6295070;22;19999;-90
2021/01/26 12:51:17;;;;;;;5.80;2.17;;;25.30;76.40;;;;;;6290403;22;20002;-88
2021/01/26 12:53:44;;;;;;;5.28;2.08;;;25.30;76.30;;;;;;6291566;22;20008;-86
2021/01/26 12:56:11;;;;;;;3.08;1.65;;;25.30;76.10;;;;;;6264436;22;20358;-88
2021/01/26 12:58:37;;;;;;;5.78;1.88;;;25.30;75.70;;;;;;6289178;22;20335;-89
2021/01/26 13:01:14;;;;;;;4.20;2.17;;;25.40;75.40;;;;;;6289537;22;20117;-89
2021/01/26 13:03:41;;;;;;;11.82;3.08;;;25.60;76.30;;;;;;6243339;22;20021;-89
2021/01/26 13:06:13;;;;;;;18.60;8.18;;;25.70;74.80;;;;;;6290117;22;20000;-89
2021/01/26 13:08:40;;;;;;;10.25;2.80;;;25.90;75.50;;;;;;6328314;22;20009;-89
2021/01/26 13:11:08;;;;;;;4.60;2.30;;;26.30;74.20;;;;;;6352597;22;19998;-89
2021/01/26 13:13:44;;;;;;;4.68;2.45;;;26.60;74.40;;;;;;6326427;22;20275;-88
2021/01/26 13:16:12;;;;;;;6.40;3.22;;;26.80;74.20;;;;;;6354377;22;19998;-88
2021/01/26 13:18:45;;;;;;;4.93;1.75;;;26.80;72.20;;;;;;6333229;22;20018;-89
2021/01/26 13:24:45;;;;;;;5.93;2.00;;;27.10;74.50;;;;;;6239469;22;20004;-90
2021/01/26 13:27:36;;;;;;;5.30;2.15;;;27.20;74.00;;;;;;6291569;22;19999;-87
2021/01/26 13:30:17;;;;;;;4.70;2.17;;;27.20;74.50;;;;;;6290933;22;20180;-88
2021/01/26 13:32:44;;;;;;;8.18;3.33;;;27.30;73.30;;;;;;6293130;22;20037;-87
2021/01/26 13:35:17;;;;;;;7.78;3.08;;;27.30;74.00;;;;;;6292284;22;20003;-90
2021/01/26 13:41:13;;;;;;;5.00;2.28;;;27.70;74.30;;;;;;6240516;22;20028;-88
2021/01/26 13:45:01;;;;;;;7.55;2.85;;;27.90;73.50;;;;;;6294024;22;20308;-91
2021/01/26 13:47:06;;;;;;;5.35;2.10;;;28.10;74.10;;;;;;6309000;22;20015;-85
2021/01/26 13:49:41;;;;;;;6.15;2.15;;;28.20;74.70;;;;;;6321108;22;20022;-87
2021/01/26 13:52:07;;;;;;;3.08;1.95;;;28.30;72.50;;;;;;6290855;22;20207;-87
2021/01/26 13:54:34;;;;;;;3.70;1.95;;;28.50;73.60;;;;;;6291822;22;20000;-88
2021/01/26 13:57:04;;;;;;;3.70;1.80;;;28.70;73.60;;;;;;6318469;22;20041;-89
2021/01/26 13:59:34;;;;;;;5.07;2.00;;;29.10;72.40;;;;;;6346535;22;20244;-91
2021/01/26 14:02:03;;;;;;;6.80;2.13;;;29.50;71.30;;;;;;6351274;22;20007;-91
2021/01/26 14:04:33;;;;;;;6.95;1.80;;;29.70;71.50;;;;;;6353771;22;19991;-88
2021/01/26 14:10:00;;;;;;;4.53;1.85;;;30.20;68.30;;;;;;6295206;22;20318;-91
2021/01/26 14:12:29;;;;;;;3.55;1.33;;;30.30;66.40;;;;;;6297918;22;20003;-91
2021/01/26 14:14:56;;;;;;;5.18;2.00;;;30.20;66.70;;;;;;6294559;22;19993;-90
2021/01/26 14:17:24;;;;;;;5.60;1.50;;;30.30;67.50;;;;;;6326114;22;20041;-90
2021/01/26 14:19:58;;;;;;;5.63;1.98;;;30.20;66.60;;;;;;6291966;22;20011;-89
2021/01/26 14:22:25;;;;;;;3.45;1.50;;;30.60;65.80;;;;;;6319500;22;20002;-89
2021/01/26 14:24:51;;;;;;;3.97;1.75;;;31.00;63.80;;;;;;6292596;22;20007;-90
2021/01/26 14:27:21;;;;;;;4.90;1.45;;;31.50;62.10;;;;;;6292187;22;19999;-86
2021/01/26 14:29:53;;;;;;;5.07;1.75;;;31.40;60.30;;;;;;6320296;22;19998;-86
2021/01/26 14:32:21;;;;;;;3.92;2.17;;;31.60;60.40;;;;;;6291273;22;20025;-86
2021/01/26 14:34:48;;;;;;;5.53;1.95;;;32.10;59.60;;;;;;6320058;22;20156;-89
2021/01/26 14:37:14;;;;;;;10.02;2.42;;;32.30;57.10;;;;;;6292371;22;20044;-91
2021/01/26 14:39:42;;;;;;;6.03;3.03;;;32.30;57.30;;;;;;6292451;22;19999;-86
2021/01/26 14:42:09;;;;;;;8.07;2.63;;;32.40;53.00;;;;;;6319397;22;20165;-89
2021/01/26 14:44:51;;;;;;;5.78;2.28;;;33.00;51.50;;;;;;6292450;22;20058;-87
2021/01/26 14:47:20;;;;;;;6.10;2.10;;;33.80;54.10;;;;;;6319285;22;19995;-87
2021/01/26 14:49:47;;;;;;;2.45;1.70;;;33.80;53.00;;;;;;6292749;22;19996;-87
2021/01/26 14:52:41;;;;;;;3.28;1.50;;;33.20;55.00;;;;;;6319454;22;20298;-87
2021/01/26 14:55:09;;;;;;;4.00;1.70;;;33.00;55.80;;;;;;6292507;22;20154;-88
2021/01/26 14:57:36;;;;;;;8.05;2.17;;;32.70;56.40;;;;;;6291291;22;20007;-88
2021/01/26 15:01:02;;;;;;;4.03;1.98;;;32.20;55.40;;;;;;6319014;22;20006;-87
2021/01/26 15:03:29;;;;;;;6.63;2.78;;;31.80;56.70;;;;;;6290169;22;20045;-87
2021/01/26 15:05:55;;;;;;;6.75;2.58;;;31.50;58.70;;;;;;6319956;22;19988;-87
2021/01/26 15:08:25;;;;;;;5.40;2.65;;;31.30;58.90;;;;;;6319117;22;19992;-87
2021/01/26 15:10:51;;;;;;;5.38;2.67;;;31.00;59.90;;;;;;6292592;22;20033;-87
2021/01/26 15:13:18;;;;;;;5.55;2.42;;;30.90;62.10;;;;;;6319714;22;20192;-87
2021/01/26 15:19:06;;;;;;;5.40;2.60;;;30.80;59.70;;;;;;6202212;23;20028;-89
2021/01/26 15:21:39;;;;;;;4.85;1.98;;;31.20;61.20;;;;;;6197687;23;20042;-88